sensor_id;sensor_type;location;lat;lon;timestamp;P1;durP1;ratioP1;P2;durP2;ratioP2
32365;SDS011;18837;46.832;16.838;2024-01-06T00:02:16;9.80;;;6.73;;
32365;SDS011;18837;46.832;16.838;2024-01-06T00:04:42;11.43;;;6.80;;
32365;SDS011;18837;46.832;16.838;2024-01-06T00:07:08;10.60;;;7.47;;
32365;SDS011;18837;46.832;16.838;2024-01-06T00:09:34;10.30;;;6.47;;
32365;SDS011;18837;46.832;16.838;2024-01-06T00:12:00;9.83;;;6.83;;
32365;SDS011;18837;46.832;16.838;2024-01-06T00:14:27;9.47;;;6.83;;
32365;SDS011;18837;46.832;16.838;2024-01-06T00:16:52;10.17;;;6.83;;
32365;SDS011;18837;46.832;16.838;2024-01-06T00:19:18;9.50;;;6.70;;
32365;SDS011;18837;46.832;16.838;2024-01-06T00:21:44;7.97;;;5.83;;
32365;SDS011;18837;46.832;16.838;2024-01-06T00:24:10;8.67;;;6.83;;
32365;SDS011;18837;46.832;16.838;2024-01-06T00:26:36;8.90;;;6.43;;
32365;SDS011;18837;46.832;16.838;2024-01-06T00:29:01;10.13;;;6.60;;
32365;SDS011;18837;46.832;16.838;2024-01-06T00:31:27;9.77;;;7.10;;
32365;SDS011;18837;46.832;16.838;2024-01-06T00:33:53;8.60;;;6.60;;
32365;SDS011;18837;46.832;16.838;2024-01-06T00:36:18;7.47;;;5.70;;
32365;SDS011;18837;46.832;16.838;2024-01-06T00:38:44;8.80;;;6.30;;
32365;SDS011;18837;46.832;16.838;2024-01-06T00:41:10;7.50;;;6.23;;
32365;SDS011;18837;46.832;16.838;2024-01-06T00:43:36;9.17;;;6.07;;
32365;SDS011;18837;46.832;16.838;2024-01-06T00:46:02;8.03;;;5.67;;
32365;SDS011;18837;46.832;16.838;2024-01-06T00:48:28;7.97;;;6.37;;
32365;SDS011;18837;46.832;16.838;2024-01-06T00:50:54;8.67;;;6.30;;
32365;SDS011;18837;46.832;16.838;2024-01-06T00:53:21;9.40;;;6.53;;
32365;SDS011;18837;46.832;16.838;2024-01-06T00:55:47;8.30;;;6.10;;
32365;SDS011;18837;46.832;16.838;2024-01-06T00:58:13;8.27;;;6.37;;
32365;SDS011;18837;46.832;16.838;2024-01-06T01:00:38;8.53;;;6.40;;
32365;SDS011;18837;46.832;16.838;2024-01-06T01:03:05;8.53;;;6.20;;
32365;SDS011;18837;46.832;16.838;2024-01-06T01:05:30;7.53;;;5.97;;
32365;SDS011;18837;46.832;16.838;2024-01-06T01:07:56;9.60;;;6.57;;
32365;SDS011;18837;46.832;16.838;2024-01-06T01:10:22;7.87;;;5.90;;
32365;SDS011;18837;46.832;16.838;2024-01-06T01:12:47;9.47;;;6.10;;
32365;SDS011;18837;46.832;16.838;2024-01-06T01:15:13;7.73;;;5.80;;
32365;SDS011;18837;46.832;16.838;2024-01-06T01:17:39;8.03;;;5.83;;
32365;SDS011;18837;46.832;16.838;2024-01-06T01:20:05;8.67;;;6.30;;
32365;SDS011;18837;46.832;16.838;2024-01-06T01:22:36;8.13;;;5.93;;
32365;SDS011;18837;46.832;16.838;2024-01-06T01:25:02;6.53;;;5.37;;
32365;SDS011;18837;46.832;16.838;2024-01-06T01:27:32;9.57;;;6.13;;
32365;SDS011;18837;46.832;16.838;2024-01-06T01:30:01;9.33;;;5.73;;
32365;SDS011;18837;46.832;16.838;2024-01-06T01:32:27;7.70;;;5.83;;
32365;SDS011;18837;46.832;16.838;2024-01-06T01:34:53;8.53;;;5.60;;
32365;SDS011;18837;46.832;16.838;2024-01-06T01:37:20;7.93;;;6.33;;
32365;SDS011;18837;46.832;16.838;2024-01-06T01:39:58;8.63;;;6.27;;
32365;SDS011;18837;46.832;16.838;2024-01-06T01:42:27;7.27;;;5.50;;
32365;SDS011;18837;46.832;16.838;2024-01-06T01:44:53;7.60;;;5.27;;
32365;SDS011;18837;46.832;16.838;2024-01-06T01:47:18;8.43;;;5.70;;
32365;SDS011;18837;46.832;16.838;2024-01-06T01:49:46;9.97;;;6.07;;
32365;SDS011;18837;46.832;16.838;2024-01-06T01:52:12;9.13;;;5.60;;
32365;SDS011;18837;46.832;16.838;2024-01-06T01:54:40;6.40;;;5.43;;
32365;SDS011;18837;46.832;16.838;2024-01-06T01:57:08;10.50;;;5.90;;
32365;SDS011;18837;46.832;16.838;2024-01-06T01:59:35;7.50;;;5.93;;
32365;SDS011;18837;46.832;16.838;2024-01-06T02:02:02;9.00;;;5.93;;
32365;SDS011;18837;46.832;16.838;2024-01-06T02:04:28;7.47;;;5.40;;
32365;SDS011;18837;46.832;16.838;2024-01-06T02:06:53;7.40;;;6.33;;
32365;SDS011;18837;46.832;16.838;2024-01-06T02:09:19;8.00;;;5.60;;
32365;SDS011;18837;46.832;16.838;2024-01-06T02:11:48;7.50;;;5.43;;
32365;SDS011;18837;46.832;16.838;2024-01-06T02:14:20;7.33;;;5.47;;
32365;SDS011;18837;46.832;16.838;2024-01-06T02:16:51;7.27;;;5.30;;
32365;SDS011;18837;46.832;16.838;2024-01-06T02:19:16;7.37;;;5.67;;
32365;SDS011;18837;46.832;16.838;2024-01-06T02:21:43;7.30;;;5.10;;
32365;SDS011;18837;46.832;16.838;2024-01-06T02:24:13;7.30;;;5.50;;
32365;SDS011;18837;46.832;16.838;2024-01-06T02:26:38;8.07;;;5.87;;
32365;SDS011;18837;46.832;16.838;2024-01-06T02:29:04;6.53;;;4.97;;
32365;SDS011;18837;46.832;16.838;2024-01-06T02:31:30;8.93;;;5.97;;
32365;SDS011;18837;46.832;16.838;2024-01-06T02:33:55;6.07;;;5.13;;
32365;SDS011;18837;46.832;16.838;2024-01-06T02:36:21;9.13;;;5.80;;
32365;SDS011;18837;46.832;16.838;2024-01-06T02:38:47;8.17;;;5.80;;
32365;SDS011;18837;46.832;16.838;2024-01-06T02:41:13;7.53;;;5.60;;
32365;SDS011;18837;46.832;16.838;2024-01-06T02:43:38;7.83;;;5.63;;
32365;SDS011;18837;46.832;16.838;2024-01-06T02:46:04;6.53;;;5.60;;
32365;SDS011;18837;46.832;16.838;2024-01-06T02:48:32;6.83;;;5.33;;
32365;SDS011;18837;46.832;16.838;2024-01-06T02:51:03;6.60;;;5.17;;
32365;SDS011;18837;46.832;16.838;2024-01-06T02:53:29;6.57;;;5.47;;
32365;SDS011;18837;46.832;16.838;2024-01-06T02:55:55;5.63;;;5.03;;
32365;SDS011;18837;46.832;16.838;2024-01-06T02:58:21;8.43;;;5.23;;
32365;SDS011;18837;46.832;16.838;2024-01-06T03:00:46;6.73;;;5.60;;
32365;SDS011;18837;46.832;16.838;2024-01-06T03:03:12;8.53;;;6.20;;
32365;SDS011;18837;46.832;16.838;2024-01-06T03:05:43;8.10;;;5.67;;
32365;SDS011;18837;46.832;16.838;2024-01-06T03:08:09;8.63;;;5.93;;
32365;SDS011;18837;46.832;16.838;2024-01-06T03:10:35;7.17;;;5.40;;
32365;SDS011;18837;46.832;16.838;2024-01-06T03:13:01;7.80;;;5.73;;
32365;SDS011;18837;46.832;16.838;2024-01-06T03:15:27;7.67;;;6.07;;
32365;SDS011;18837;46.832;16.838;2024-01-06T03:17:52;7.23;;;5.70;;
32365;SDS011;18837;46.832;16.838;2024-01-06T03:20:28;6.03;;;5.27;;
32365;SDS011;18837;46.832;16.838;2024-01-06T03:23:00;6.30;;;5.07;;
32365;SDS011;18837;46.832;16.838;2024-01-06T03:25:41;7.47;;;5.67;;
32365;SDS011;18837;46.832;16.838;2024-01-06T03:28:07;8.43;;;5.73;;
32365;SDS011;18837;46.832;16.838;2024-01-06T03:30:32;8.20;;;5.73;;
32365;SDS011;18837;46.832;16.838;2024-01-06T03:32:58;6.63;;;5.60;;
32365;SDS011;18837;46.832;16.838;2024-01-06T03:35:24;7.40;;;5.43;;
32365;SDS011;18837;46.832;16.838;2024-01-06T03:37:50;9.13;;;6.17;;
32365;SDS011;18837;46.832;16.838;2024-01-06T03:40:17;8.90;;;6.00;;
32365;SDS011;18837;46.832;16.838;2024-01-06T03:42:42;6.63;;;5.47;;
32365;SDS011;18837;46.832;16.838;2024-01-06T03:45:08;8.73;;;5.80;;
32365;SDS011;18837;46.832;16.838;2024-01-06T03:47:34;7.90;;;6.23;;
32365;SDS011;18837;46.832;16.838;2024-01-06T03:49:59;6.13;;;5.37;;
32365;SDS011;18837;46.832;16.838;2024-01-06T03:52:25;7.37;;;5.63;;
32365;SDS011;18837;46.832;16.838;2024-01-06T03:54:54;7.90;;;5.53;;
32365;SDS011;18837;46.832;16.838;2024-01-06T03:57:20;8.97;;;6.40;;
32365;SDS011;18837;46.832;16.838;2024-01-06T04:00:13;6.77;;;5.27;;
32365;SDS011;18837;46.832;16.838;2024-01-06T04:05:07;8.90;;;5.67;;
32365;SDS011;18837;46.832;16.838;2024-01-06T04:10:21;6.87;;;5.63;;
32365;SDS011;18837;46.832;16.838;2024-01-06T04:12:47;7.97;;;6.23;;
32365;SDS011;18837;46.832;16.838;2024-01-06T04:15:13;9.23;;;6.27;;
32365;SDS011;18837;46.832;16.838;2024-01-06T04:17:38;7.87;;;5.97;;
32365;SDS011;18837;46.832;16.838;2024-01-06T04:20:04;9.13;;;5.80;;
32365;SDS011;18837;46.832;16.838;2024-01-06T04:22:30;7.87;;;5.80;;
32365;SDS011;18837;46.832;16.838;2024-01-06T04:24:56;7.40;;;5.93;;
32365;SDS011;18837;46.832;16.838;2024-01-06T04:27:22;7.87;;;6.40;;
32365;SDS011;18837;46.832;16.838;2024-01-06T04:29:48;8.80;;;6.23;;
32365;SDS011;18837;46.832;16.838;2024-01-06T04:32:21;8.07;;;5.97;;
32365;SDS011;18837;46.832;16.838;2024-01-06T04:34:48;7.60;;;5.97;;
32365;SDS011;18837;46.832;16.838;2024-01-06T04:37:14;7.87;;;6.23;;
32365;SDS011;18837;46.832;16.838;2024-01-06T04:42:15;6.37;;;5.60;;
32365;SDS011;18837;46.832;16.838;2024-01-06T04:44:41;7.57;;;5.87;;
32365;SDS011;18837;46.832;16.838;2024-01-06T04:47:07;7.23;;;5.73;;
32365;SDS011;18837;46.832;16.838;2024-01-06T04:49:33;7.50;;;5.93;;
32365;SDS011;18837;46.832;16.838;2024-01-06T04:52:02;8.30;;;6.63;;
32365;SDS011;18837;46.832;16.838;2024-01-06T04:54:28;9.00;;;6.03;;
32365;SDS011;18837;46.832;16.838;2024-01-06T04:56:54;8.97;;;6.37;;
32365;SDS011;18837;46.832;16.838;2024-01-06T04:59:21;7.00;;;5.97;;
32365;SDS011;18837;46.832;16.838;2024-01-06T05:01:46;7.83;;;6.00;;
32365;SDS011;18837;46.832;16.838;2024-01-06T05:12:06;9.13;;;6.47;;
32365;SDS011;18837;46.832;16.838;2024-01-06T05:35:55;7.60;;;6.10;;
32365;SDS011;18837;46.832;16.838;2024-01-06T05:38:23;7.97;;;5.80;;
32365;SDS011;18837;46.832;16.838;2024-01-06T05:56:53;8.20;;;5.73;;
32365;SDS011;18837;46.832;16.838;2024-01-06T05:59:23;6.80;;;5.40;;
32365;SDS011;18837;46.832;16.838;2024-01-06T06:01:48;7.67;;;5.87;;
32365;SDS011;18837;46.832;16.838;2024-01-06T06:04:20;8.73;;;5.70;;
32365;SDS011;18837;46.832;16.838;2024-01-06T06:06:49;7.63;;;6.20;;
32365;SDS011;18837;46.832;16.838;2024-01-06T06:09:14;9.30;;;6.37;;
32365;SDS011;18837;46.832;16.838;2024-01-06T06:11:40;6.87;;;5.40;;
32365;SDS011;18837;46.832;16.838;2024-01-06T06:14:06;8.23;;;6.20;;
32365;SDS011;18837;46.832;16.838;2024-01-06T06:16:34;7.50;;;5.70;;
32365;SDS011;18837;46.832;16.838;2024-01-06T06:19:00;7.20;;;5.80;;
32365;SDS011;18837;46.832;16.838;2024-01-06T06:21:26;8.23;;;6.20;;
32365;SDS011;18837;46.832;16.838;2024-01-06T06:23:52;6.67;;;5.30;;
32365;SDS011;18837;46.832;16.838;2024-01-06T06:26:17;8.30;;;5.93;;
32365;SDS011;18837;46.832;16.838;2024-01-06T06:28:57;7.27;;;5.43;;
32365;SDS011;18837;46.832;16.838;2024-01-06T06:31:25;6.63;;;5.93;;
32365;SDS011;18837;46.832;16.838;2024-01-06T06:33:50;8.00;;;5.90;;
32365;SDS011;18837;46.832;16.838;2024-01-06T06:36:22;7.13;;;5.33;;
32365;SDS011;18837;46.832;16.838;2024-01-06T06:38:48;7.17;;;5.90;;
32365;SDS011;18837;46.832;16.838;2024-01-06T06:41:17;7.17;;;5.30;;
32365;SDS011;18837;46.832;16.838;2024-01-06T06:43:45;7.83;;;6.33;;
32365;SDS011;18837;46.832;16.838;2024-01-06T06:46:11;8.27;;;5.97;;
32365;SDS011;18837;46.832;16.838;2024-01-06T06:48:39;7.93;;;6.17;;
32365;SDS011;18837;46.832;16.838;2024-01-06T06:51:05;7.10;;;5.73;;
32365;SDS011;18837;46.832;16.838;2024-01-06T06:53:34;7.30;;;5.80;;
32365;SDS011;18837;46.832;16.838;2024-01-06T06:55:59;8.20;;;5.63;;
32365;SDS011;18837;46.832;16.838;2024-01-06T06:58:25;7.83;;;6.30;;
32365;SDS011;18837;46.832;16.838;2024-01-06T07:00:51;8.60;;;5.70;;
32365;SDS011;18837;46.832;16.838;2024-01-06T07:09:02;6.97;;;5.57;;
32365;SDS011;18837;46.832;16.838;2024-01-06T07:11:30;7.33;;;5.50;;
32365;SDS011;18837;46.832;16.838;2024-01-06T07:13:56;6.80;;;5.53;;
32365;SDS011;18837;46.832;16.838;2024-01-06T07:16:21;6.90;;;6.03;;
32365;SDS011;18837;46.832;16.838;2024-01-06T07:18:47;6.93;;;5.60;;
32365;SDS011;18837;46.832;16.838;2024-01-06T07:21:13;7.43;;;5.70;;
32365;SDS011;18837;46.832;16.838;2024-01-06T07:23:39;8.33;;;6.17;;
32365;SDS011;18837;46.832;16.838;2024-01-06T07:26:04;8.40;;;6.07;;
32365;SDS011;18837;46.832;16.838;2024-01-06T07:28:30;5.97;;;5.20;;
32365;SDS011;18837;46.832;16.838;2024-01-06T07:30:56;7.60;;;5.77;;
32365;SDS011;18837;46.832;16.838;2024-01-06T07:33:22;7.13;;;5.33;;
32365;SDS011;18837;46.832;16.838;2024-01-06T07:35:48;6.77;;;5.73;;
32365;SDS011;18837;46.832;16.838;2024-01-06T07:38:13;7.60;;;6.03;;
32365;SDS011;18837;46.832;16.838;2024-01-06T07:40:39;6.50;;;5.33;;
32365;SDS011;18837;46.832;16.838;2024-01-06T07:43:05;6.93;;;5.27;;
32365;SDS011;18837;46.832;16.838;2024-01-06T07:45:31;7.17;;;5.53;;
32365;SDS011;18837;46.832;16.838;2024-01-06T07:47:58;7.97;;;5.90;;
32365;SDS011;18837;46.832;16.838;2024-01-06T07:50:24;7.83;;;5.70;;
32365;SDS011;18837;46.832;16.838;2024-01-06T07:52:50;7.23;;;5.70;;
32365;SDS011;18837;46.832;16.838;2024-01-06T07:55:16;7.97;;;5.97;;
32365;SDS011;18837;46.832;16.838;2024-01-06T08:00:19;5.97;;;5.20;;
32365;SDS011;18837;46.832;16.838;2024-01-06T08:02:44;6.27;;;5.30;;
32365;SDS011;18837;46.832;16.838;2024-01-06T08:05:10;8.00;;;5.67;;
32365;SDS011;18837;46.832;16.838;2024-01-06T08:07:36;7.37;;;6.27;;
32365;SDS011;18837;46.832;16.838;2024-01-06T08:10:05;11.00;;;7.80;;
32365;SDS011;18837;46.832;16.838;2024-01-06T08:12:33;10.47;;;8.40;;
32365;SDS011;18837;46.832;16.838;2024-01-06T08:14:59;11.10;;;8.27;;
32365;SDS011;18837;46.832;16.838;2024-01-06T08:17:25;10.13;;;7.70;;
32365;SDS011;18837;46.832;16.838;2024-01-06T08:19:51;10.50;;;7.33;;
32365;SDS011;18837;46.832;16.838;2024-01-06T08:22:16;10.27;;;7.27;;
32365;SDS011;18837;46.832;16.838;2024-01-06T08:24:42;7.97;;;7.10;;
32365;SDS011;18837;46.832;16.838;2024-01-06T08:27:08;10.53;;;7.50;;
32365;SDS011;18837;46.832;16.838;2024-01-06T08:29:34;9.40;;;6.93;;
32365;SDS011;18837;46.832;16.838;2024-01-06T08:32:00;11.33;;;7.97;;
32365;SDS011;18837;46.832;16.838;2024-01-06T08:34:26;10.13;;;7.60;;
32365;SDS011;18837;46.832;16.838;2024-01-06T08:36:52;12.30;;;8.10;;
32365;SDS011;18837;46.832;16.838;2024-01-06T08:39:18;10.30;;;7.93;;
32365;SDS011;18837;46.832;16.838;2024-01-06T08:41:43;9.80;;;7.37;;
32365;SDS011;18837;46.832;16.838;2024-01-06T08:44:10;10.23;;;7.13;;
32365;SDS011;18837;46.832;16.838;2024-01-06T08:46:35;9.30;;;7.77;;
32365;SDS011;18837;46.832;16.838;2024-01-06T08:49:01;10.17;;;7.80;;
32365;SDS011;18837;46.832;16.838;2024-01-06T08:51:28;10.47;;;7.50;;
32365;SDS011;18837;46.832;16.838;2024-01-06T08:53:58;8.93;;;6.73;;
32365;SDS011;18837;46.832;16.838;2024-01-06T08:56:24;10.30;;;7.53;;
32365;SDS011;18837;46.832;16.838;2024-01-06T08:58:51;9.83;;;7.50;;
32365;SDS011;18837;46.832;16.838;2024-01-06T09:01:16;10.57;;;7.80;;
32365;SDS011;18837;46.832;16.838;2024-01-06T09:03:42;16.07;;;10.90;;
32365;SDS011;18837;46.832;16.838;2024-01-06T09:06:08;18.97;;;14.10;;
32365;SDS011;18837;46.832;16.838;2024-01-06T09:08:34;20.63;;;14.67;;
32365;SDS011;18837;46.832;16.838;2024-01-06T09:11:00;20.23;;;14.90;;
32365;SDS011;18837;46.832;16.838;2024-01-06T09:13:26;22.27;;;14.80;;
32365;SDS011;18837;46.832;16.838;2024-01-06T09:15:51;19.20;;;14.77;;
32365;SDS011;18837;46.832;16.838;2024-01-06T09:18:17;22.33;;;15.17;;
32365;SDS011;18837;46.832;16.838;2024-01-06T09:20:43;21.87;;;15.57;;
32365;SDS011;18837;46.832;16.838;2024-01-06T09:23:09;22.63;;;15.70;;
32365;SDS011;18837;46.832;16.838;2024-01-06T09:25:35;20.13;;;14.33;;
32365;SDS011;18837;46.832;16.838;2024-01-06T09:28:03;21.07;;;14.33;;
32365;SDS011;18837;46.832;16.838;2024-01-06T09:30:29;19.80;;;14.63;;
32365;SDS011;18837;46.832;16.838;2024-01-06T09:32:55;19.07;;;14.83;;
32365;SDS011;18837;46.832;16.838;2024-01-06T09:35:21;20.87;;;15.00;;
32365;SDS011;18837;46.832;16.838;2024-01-06T09:37:46;19.57;;;14.40;;
32365;SDS011;18837;46.832;16.838;2024-01-06T09:40:14;18.33;;;13.53;;
32365;SDS011;18837;46.832;16.838;2024-01-06T09:42:47;19.50;;;14.70;;
32365;SDS011;18837;46.832;16.838;2024-01-06T09:45:13;17.90;;;13.93;;
32365;SDS011;18837;46.832;16.838;2024-01-06T09:47:40;20.67;;;14.30;;
32365;SDS011;18837;46.832;16.838;2024-01-06T09:50:08;19.60;;;14.57;;
32365;SDS011;18837;46.832;16.838;2024-01-06T09:52:34;18.70;;;13.67;;
32365;SDS011;18837;46.832;16.838;2024-01-06T09:55:12;18.50;;;13.70;;
32365;SDS011;18837;46.832;16.838;2024-01-06T09:57:38;16.33;;;13.03;;
32365;SDS011;18837;46.832;16.838;2024-01-06T10:00:04;19.77;;;13.70;;
32365;SDS011;18837;46.832;16.838;2024-01-06T10:02:30;16.53;;;14.13;;
32365;SDS011;18837;46.832;16.838;2024-01-06T10:04:57;19.30;;;13.20;;
32365;SDS011;18837;46.832;16.838;2024-01-06T10:07:25;17.77;;;13.97;;
32365;SDS011;18837;46.832;16.838;2024-01-06T10:09:51;18.00;;;14.23;;
32365;SDS011;18837;46.832;16.838;2024-01-06T10:12:23;18.10;;;14.23;;
32365;SDS011;18837;46.832;16.838;2024-01-06T10:14:53;19.97;;;13.63;;
32365;SDS011;18837;46.832;16.838;2024-01-06T10:17:19;18.03;;;12.97;;
32365;SDS011;18837;46.832;16.838;2024-01-06T10:19:45;18.23;;;14.03;;
32365;SDS011;18837;46.832;16.838;2024-01-06T10:22:12;17.57;;;13.33;;
32365;SDS011;18837;46.832;16.838;2024-01-06T10:24:38;17.37;;;13.70;;
32365;SDS011;18837;46.832;16.838;2024-01-06T10:27:05;16.40;;;12.77;;
32365;SDS011;18837;46.832;16.838;2024-01-06T10:29:31;18.90;;;13.17;;
32365;SDS011;18837;46.832;16.838;2024-01-06T10:31:58;17.57;;;13.73;;
32365;SDS011;18837;46.832;16.838;2024-01-06T10:34:24;17.33;;;13.93;;
32365;SDS011;18837;46.832;16.838;2024-01-06T10:36:51;17.73;;;13.93;;
32365;SDS011;18837;46.832;16.838;2024-01-06T10:39:17;18.47;;;13.13;;
32365;SDS011;18837;46.832;16.838;2024-01-06T10:41:43;16.07;;;13.40;;
32365;SDS011;18837;46.832;16.838;2024-01-06T10:44:10;16.17;;;13.33;;
32365;SDS011;18837;46.832;16.838;2024-01-06T10:46:38;17.00;;;12.87;;
32365;SDS011;18837;46.832;16.838;2024-01-06T10:49:05;15.57;;;12.93;;
32365;SDS011;18837;46.832;16.838;2024-01-06T10:51:37;18.07;;;13.20;;
32365;SDS011;18837;46.832;16.838;2024-01-06T10:54:03;15.87;;;12.03;;
32365;SDS011;18837;46.832;16.838;2024-01-06T10:56:31;15.87;;;13.20;;
32365;SDS011;18837;46.832;16.838;2024-01-06T10:59:06;17.00;;;12.77;;
32365;SDS011;18837;46.832;16.838;2024-01-06T11:01:33;17.50;;;13.07;;
32365;SDS011;18837;46.832;16.838;2024-01-06T11:04:01;17.13;;;12.57;;
32365;SDS011;18837;46.832;16.838;2024-01-06T11:06:30;18.83;;;13.77;;
32365;SDS011;18837;46.832;16.838;2024-01-06T11:11:52;16.83;;;12.70;;
32365;SDS011;18837;46.832;16.838;2024-01-06T11:14:23;13.67;;;12.07;;
32365;SDS011;18837;46.832;16.838;2024-01-06T11:16:51;16.20;;;12.63;;
32365;SDS011;18837;46.832;16.838;2024-01-06T11:24:47;15.03;;;12.37;;
32365;SDS011;18837;46.832;16.838;2024-01-06T11:27:22;15.57;;;12.20;;
32365;SDS011;18837;46.832;16.838;2024-01-06T11:29:55;13.87;;;11.60;;
32365;SDS011;18837;46.832;16.838;2024-01-06T11:34:53;13.60;;;11.90;;
32365;SDS011;18837;46.832;16.838;2024-01-06T11:37:24;13.57;;;11.57;;
32365;SDS011;18837;46.832;16.838;2024-01-06T11:40:43;14.37;;;11.77;;
32365;SDS011;18837;46.832;16.838;2024-01-06T11:43:06;13.53;;;11.70;;
32365;SDS011;18837;46.832;16.838;2024-01-06T11:45:37;13.73;;;11.37;;
32365;SDS011;18837;46.832;16.838;2024-01-06T11:48:07;12.40;;;11.10;;
32365;SDS011;18837;46.832;16.838;2024-01-06T11:50:34;12.07;;;10.17;;
32365;SDS011;18837;46.832;16.838;2024-01-06T11:53:04;12.70;;;11.10;;
32365;SDS011;18837;46.832;16.838;2024-01-06T11:55:31;14.27;;;11.17;;
32365;SDS011;18837;46.832;16.838;2024-01-06T11:57:57;14.70;;;11.60;;
32365;SDS011;18837;46.832;16.838;2024-01-06T12:00:33;13.27;;;11.13;;
32365;SDS011;18837;46.832;16.838;2024-01-06T12:03:01;12.33;;;10.67;;
32365;SDS011;18837;46.832;16.838;2024-01-06T12:05:27;12.50;;;11.00;;
32365;SDS011;18837;46.832;16.838;2024-01-06T12:07:54;11.73;;;10.53;;
32365;SDS011;18837;46.832;16.838;2024-01-06T12:10:21;13.53;;;10.90;;
32365;SDS011;18837;46.832;16.838;2024-01-06T12:13:21;13.00;;;11.60;;
32365;SDS011;18837;46.832;16.838;2024-01-06T12:15:42;12.97;;;11.07;;
32365;SDS011;18837;46.832;16.838;2024-01-06T12:18:08;12.37;;;11.07;;
32365;SDS011;18837;46.832;16.838;2024-01-06T12:20:34;11.63;;;10.43;;
32365;SDS011;18837;46.832;16.838;2024-01-06T12:23:00;11.60;;;10.47;;
32365;SDS011;18837;46.832;16.838;2024-01-06T12:25:29;11.70;;;10.50;;
32365;SDS011;18837;46.832;16.838;2024-01-06T12:27:58;12.53;;;10.60;;
32365;SDS011;18837;46.832;16.838;2024-01-06T12:30:26;12.37;;;9.67;;
32365;SDS011;18837;46.832;16.838;2024-01-06T12:32:52;11.13;;;9.77;;
32365;SDS011;18837;46.832;16.838;2024-01-06T12:35:19;10.97;;;9.80;;
32365;SDS011;18837;46.832;16.838;2024-01-06T12:37:46;11.27;;;9.93;;
32365;SDS011;18837;46.832;16.838;2024-01-06T12:40:12;10.47;;;9.40;;
32365;SDS011;18837;46.832;16.838;2024-01-06T12:42:39;11.57;;;10.10;;
32365;SDS011;18837;46.832;16.838;2024-01-06T12:45:05;12.33;;;10.07;;
32365;SDS011;18837;46.832;16.838;2024-01-06T12:47:32;14.43;;;10.83;;
32365;SDS011;18837;46.832;16.838;2024-01-06T12:49:58;12.10;;;10.43;;
32365;SDS011;18837;46.832;16.838;2024-01-06T12:52:24;10.73;;;9.40;;
32365;SDS011;18837;46.832;16.838;2024-01-06T12:54:53;10.57;;;9.47;;
32365;SDS011;18837;46.832;16.838;2024-01-06T12:57:19;11.67;;;10.00;;
32365;SDS011;18837;46.832;16.838;2024-01-06T12:59:45;12.60;;;10.43;;
32365;SDS011;18837;46.832;16.838;2024-01-06T13:02:11;10.27;;;9.20;;
32365;SDS011;18837;46.832;16.838;2024-01-06T13:04:37;11.57;;;10.33;;
32365;SDS011;18837;46.832;16.838;2024-01-06T13:07:03;11.00;;;9.83;;
32365;SDS011;18837;46.832;16.838;2024-01-06T13:09:29;11.60;;;10.10;;
32365;SDS011;18837;46.832;16.838;2024-01-06T13:11:55;12.77;;;10.07;;
32365;SDS011;18837;46.832;16.838;2024-01-06T13:14:25;13.77;;;10.63;;
32365;SDS011;18837;46.832;16.838;2024-01-06T13:16:55;12.33;;;10.10;;
32365;SDS011;18837;46.832;16.838;2024-01-06T13:19:21;11.63;;;9.97;;
32365;SDS011;18837;46.832;16.838;2024-01-06T13:21:47;11.73;;;9.63;;
32365;SDS011;18837;46.832;16.838;2024-01-06T13:24:12;11.07;;;9.57;;
32365;SDS011;18837;46.832;16.838;2024-01-06T13:26:38;10.93;;;8.90;;
32365;SDS011;18837;46.832;16.838;2024-01-06T13:29:04;10.93;;;9.40;;
32365;SDS011;18837;46.832;16.838;2024-01-06T13:31:30;9.70;;;8.60;;
32365;SDS011;18837;46.832;16.838;2024-01-06T13:33:57;10.03;;;8.30;;
32365;SDS011;18837;46.832;16.838;2024-01-06T13:36:23;10.50;;;8.37;;
32365;SDS011;18837;46.832;16.838;2024-01-06T13:38:49;8.73;;;7.47;;
32365;SDS011;18837;46.832;16.838;2024-01-06T13:41:15;9.60;;;8.27;;
32365;SDS011;18837;46.832;16.838;2024-01-06T13:43:41;8.90;;;8.00;;
32365;SDS011;18837;46.832;16.838;2024-01-06T13:46:12;8.80;;;7.90;;
32365;SDS011;18837;46.832;16.838;2024-01-06T13:48:41;7.83;;;7.03;;
32365;SDS011;18837;46.832;16.838;2024-01-06T13:51:06;8.40;;;7.13;;
32365;SDS011;18837;46.832;16.838;2024-01-06T13:53:33;9.50;;;6.97;;
32365;SDS011;18837;46.832;16.838;2024-01-06T13:55:59;8.83;;;7.07;;
32365;SDS011;18837;46.832;16.838;2024-01-06T13:58:24;8.57;;;6.70;;
32365;SDS011;18837;46.832;16.838;2024-01-06T14:00:50;7.27;;;6.47;;
32365;SDS011;18837;46.832;16.838;2024-01-06T14:03:19;8.10;;;6.43;;
32365;SDS011;18837;46.832;16.838;2024-01-06T14:05:47;7.37;;;6.57;;
32365;SDS011;18837;46.832;16.838;2024-01-06T14:08:13;6.97;;;6.23;;
32365;SDS011;18837;46.832;16.838;2024-01-06T14:10:39;6.87;;;6.17;;
32365;SDS011;18837;46.832;16.838;2024-01-06T14:13:04;7.17;;;5.93;;
32365;SDS011;18837;46.832;16.838;2024-01-06T14:15:32;6.07;;;5.47;;
32365;SDS011;18837;46.832;16.838;2024-01-06T14:18:00;6.73;;;6.00;;
32365;SDS011;18837;46.832;16.838;2024-01-06T14:20:26;6.90;;;5.73;;
32365;SDS011;18837;46.832;16.838;2024-01-06T14:22:52;6.90;;;5.73;;
32365;SDS011;18837;46.832;16.838;2024-01-06T14:25:18;6.10;;;5.50;;
32365;SDS011;18837;46.832;16.838;2024-01-06T14:27:45;5.60;;;5.10;;
32365;SDS011;18837;46.832;16.838;2024-01-06T14:30:11;5.80;;;5.20;;
32365;SDS011;18837;46.832;16.838;2024-01-06T14:32:37;5.70;;;5.03;;
32365;SDS011;18837;46.832;16.838;2024-01-06T14:35:04;5.03;;;4.53;;
32365;SDS011;18837;46.832;16.838;2024-01-06T14:37:31;6.17;;;4.77;;
32365;SDS011;18837;46.832;16.838;2024-01-06T14:39:57;5.50;;;5.00;;
32365;SDS011;18837;46.832;16.838;2024-01-06T14:42:23;5.43;;;4.57;;
32365;SDS011;18837;46.832;16.838;2024-01-06T14:44:49;5.63;;;4.70;;
32365;SDS011;18837;46.832;16.838;2024-01-06T14:47:15;5.17;;;4.67;;
32365;SDS011;18837;46.832;16.838;2024-01-06T14:49:41;5.53;;;4.40;;
32365;SDS011;18837;46.832;16.838;2024-01-06T14:52:06;4.83;;;4.37;;
32365;SDS011;18837;46.832;16.838;2024-01-06T14:54:32;5.00;;;4.33;;
32365;SDS011;18837;46.832;16.838;2024-01-06T14:56:59;4.73;;;4.23;;
32365;SDS011;18837;46.832;16.838;2024-01-06T14:59:25;4.47;;;4.00;;
32365;SDS011;18837;46.832;16.838;2024-01-06T15:01:51;4.73;;;4.17;;
32365;SDS011;18837;46.832;16.838;2024-01-06T15:04:22;4.20;;;3.80;;
32365;SDS011;18837;46.832;16.838;2024-01-06T15:06:57;4.27;;;3.77;;
32365;SDS011;18837;46.832;16.838;2024-01-06T15:09:24;4.33;;;3.93;;
32365;SDS011;18837;46.832;16.838;2024-01-06T15:11:51;4.03;;;3.57;;
32365;SDS011;18837;46.832;16.838;2024-01-06T15:14:17;4.13;;;3.23;;
32365;SDS011;18837;46.832;16.838;2024-01-06T15:16:43;4.10;;;3.60;;
32365;SDS011;18837;46.832;16.838;2024-01-06T15:19:11;3.90;;;3.37;;
32365;SDS011;18837;46.832;16.838;2024-01-06T15:21:38;3.60;;;3.30;;
32365;SDS011;18837;46.832;16.838;2024-01-06T15:24:05;3.60;;;3.20;;
32365;SDS011;18837;46.832;16.838;2024-01-06T15:26:41;3.40;;;3.10;;
32365;SDS011;18837;46.832;16.838;2024-01-06T15:29:07;3.60;;;3.00;;
32365;SDS011;18837;46.832;16.838;2024-01-06T15:31:33;2.97;;;2.67;;
32365;SDS011;18837;46.832;16.838;2024-01-06T15:33:59;3.13;;;2.53;;
32365;SDS011;18837;46.832;16.838;2024-01-06T15:36:25;3.40;;;2.60;;
32365;SDS011;18837;46.832;16.838;2024-01-06T15:38:51;3.17;;;2.87;;